ADDS METAR Data INFO
IDs: Format: Raw Decoded Include TAF

Data at: 1138 UTC 17 Jul 2018

KSVC 171135Z AUTO 30003KT 10SM CLR 15/14 A3026 RMK AO2 T01450135
KSVC 171115Z AUTO 28004KT 10SM SCT120 15/14 A3025 RMK AO2 T01520140
KSVC 171055Z AUTO 00000KT 10SM BKN120 15/14 A3025 RMK AO2 T01470138
KSVC 171035Z AUTO 00000KT 10SM BKN110 16/14 A3025 RMK AO2 T01550143
KSVC 171015Z AUTO 00000KT 10SM BKN120 16/14 A3025 RMK AO2 T01550142
KSVC 170955Z AUTO 33004KT 10SM BKN120 15/14 A3025 RMK AO2 T01530142
KSVC 170935Z AUTO 32005KT 10SM SCT120 16/15 A3025 RMK AO2 T01550146
KSVC 170915Z AUTO 32004KT 10SM BKN110 16/15 A3025 RMK AO2 T01570150
KSVC 170855Z AUTO 32005KT 10SM OVC110 16/15 A3025 RMK AO2 T01600153
KSVC 170835Z AUTO 31005KT 10SM OVC110 16/15 A3025 RMK AO2 T01600154
KSVC 170815Z AUTO 33007KT 10SM OVC110 16/16 A3025 RMK AO2 T01610155
KSVC 170755Z AUTO 31009KT 10SM OVC110 16/16 A3025 RMK AO2 T01620157
KSVC 170735Z AUTO 31007KT 10SM BKN110 16/16 A3025 RMK AO2 T01630157
KSVC 170715Z AUTO 32009KT 10SM BKN110 17/16 A3026 RMK AO2 T01680160
KSVC 170655Z AUTO 32008KT 10SM BKN110 17/16 A3026 RMK AO2 T01720160 402780169
KSVC 170635Z AUTO 31006KT 10SM SCT120 17/16 A3027 RMK AO2 T01700159
KSVC 170615Z AUTO 33008KT 10SM SCT120 17/16 A3027 RMK AO2 T01720160
KSVC 170555Z AUTO 00000KT 10SM SCT120 18/16 A3027 RMK AO2 60007 T01750160 10273 20174
KSVC 170535Z AUTO 35005KT 10SM CLR 18/16 A3028 RMK AO2 T01760159
KSVC 170515Z AUTO 35006KT 10SM CLR 18/16 A3028 RMK AO2 T01760158
KSVC 170455Z AUTO 36006KT 10SM SCT100 18/16 A3027 RMK AO2 T01800156
KSVC 170435Z AUTO 36009KT 10SM CLR 18/16 A3027 RMK AO2 T01800156
KSVC 170415Z AUTO 35008KT 10SM SCT120 18/17 A3027 RMK AO2 T01810165
KSVC 170355Z AUTO 34007KT 10SM -DZ SCT080 SCT095 SCT120 18/17 A3026 RMK AO2 LTG DSNT W T01820168
KSVC 170335Z AUTO 33005KT 10SM -RA SCT010 SCT070 BKN120 18/17 A3027 RMK AO2 LTG DSNT W T01840171
KSVC 170315Z AUTO 29007KT 10SM -RA BKN010 BKN018 BKN065 18/16 A3026 RMK AO2 LTG DSNT SW THRU NW T01810163
KSVC 170255Z AUTO 33003KT 10SM -RA SCT012 SCT049 BKN110 19/17 A3027 RMK AO2 LTG DSNT SW THRU N P0006 60007 T01850170
KSVC 170235Z AUTO 13004KT 10SM VCTSRA OVC110 19/17 A3027 RMK AO2 LTG DSNT ALQS P0004 T01850170
KSVC 170215Z AUTO 07005KT 10SM -TSRA OVC110 19/17 A3024 RMK AO2 LTG DSNT ALQS P0002 T01860168
KSVC 170155Z AUTO 07009G20KT 10SM -VCTSRA SCT042 SCT090 OVC110 18/16 A3022 RMK AO2 LTG DSNT ALQS P0001 T01780161
KSVC 170135Z AUTO 09014G19KT 10SM RA SCT042 BKN090 OVC120 20/18 A3023 RMK AO2 LTG DSNT ALQS T02040175
KSVC 170115Z AUTO 15016KT 10SM SCT039 SCT046 BKN090 22/17 A3021 RMK AO2 LTG DSNT ALQS T02190168
KSVC 170055Z AUTO 16008KT 10SM SCT060 SCT070 SCT110 24/15 A3018 RMK AO2 LTG DSNT SE AND SW T02410152
KSVC 170035Z AUTO 14013G21KT 10SM SCT055 SCT070 BKN110 24/17 A3016 RMK AO2 LTG DSNT N THRU SE T02350165
KSVC 170015Z AUTO 18010KT 10SM SCT055 SCT070 BKN120 27/16 A3016 RMK AO2 LTG DSNT N THRU SE T02710157
KSVC 162355Z AUTO 19009KT 10SM CLR 27/16 A3018 RMK AO2 LTG DSNT NE E AND W 60004 T02740155 10278 20215
KSVC 162335Z AUTO 21010G14KT 10SM SCT065 SCT075 26/16 A3018 RMK AO2 LTG DSNT NE T02630161
KSVC 162315Z AUTO 22009KT 10SM SCT050 BKN065 BKN080 26/16 A3017 RMK AO2 T02610157
KSVC 162255Z AUTO 22014G18KT 10SM BKN050 BKN065 BKN080 26/16 A3018 RMK AO2 T02630160
KSVC 162235Z AUTO 20005KT 10SM SCT120 27/15 A3018 RMK AO2 LTG DSNT NW T02740150
KSVC 162215Z AUTO 08004KT 10SM SCT120 27/15 A3018 RMK AO2 LTG DSNT N AND NW T02730153
KSVC 162155Z AUTO 12003KT 10SM CLR 27/15 A3018 RMK AO2 LTG DSNT SW AND NW T02670149
KSVC 162135Z AUTO 34005KT 10SM SCT120 26/15 A3019 RMK AO2 LTG DSNT SE T02550148
KSVC 162115Z AUTO 33006KT 10SM CLR 25/15 A3020 RMK AO2 T02510154
KSVC 162055Z AUTO 34007KT 10SM CLR 24/16 A3021 RMK AO2 LTG DSNT N AND SW P0004 60004 T02380156
KSVC 162035Z AUTO 34005KT 10SM -VCTSRA SCT021 SCT045 BKN090 22/15 A3022 RMK AO2 LTG DSNT S THRU N P0004 T02200152
KSVC 162015Z AUTO 12006KT 5SM TSRA SCT023 SCT046 BKN090 22/17 A3023 RMK AO2 LTG DSNT W THRU N P0002 T02180169
KSVC 161955Z AUTO 12009KT 10SM TS SCT070 SCT100 26/16 A3023 RMK AO2 LTG DSNT ALQS T02600164
KSVC 161935Z AUTO 14007KT 10SM SCT070 27/16 A3022 RMK AO2 LTG DSNT S THRU N T02710160
KSVC 161915Z AUTO 16007KT 110V190 10SM VCTS SCT050 SCT055 27/17 A3023 RMK AO2 LTG DSNT NW THRU NE T02710171
KSVC 161855Z AUTO 17005KT 10SM SCT046 BKN055 BKN065 26/17 A3024 RMK AO2 LTG DSNT NW THRU NE T02590168
KSVC 161835Z AUTO 14006KT 10SM SCT035 BKN041 BKN050 26/17 A3025 RMK AO2 LTG DSNT N T02620172
KSVC 161815Z AUTO 12008KT 10SM SCT032 SCT038 BKN110 25/17 A3025 RMK AO2 LTG DSNT S AND W T02530167
KSVC 161755Z AUTO 12005KT 10SM SCT028 OVC110 25/17 A3025 RMK AO2 LTG DSNT N AND W T02510168 10252 20169
KSVC 161735Z AUTO 17004KT 10SM SCT028 OVC110 24/16 A3026 RMK AO2 LTG DSNT W T02430164
KSVC 161715Z AUTO 13005KT 10SM BKN110 23/16 A3026 RMK AO2 LTG DSNT N AND W T02330164
KSVC 161655Z AUTO 10003KT 10SM SCT026 SCT095 SCT110 23/16 A3026 RMK AO2 T02330161
KSVC 161635Z AUTO 10004KT 10SM SCT024 SCT080 24/17 A3026 RMK AO2 T02360165
KSVC 161615Z AUTO 11005KT 10SM OVC080 23/16 A3027 RMK AO2 T02330162
KSVC 161555Z AUTO 00000KT 10SM SCT080 BKN110 22/16 A3027 RMK AO2 T02240161
KSVC 161535Z AUTO 15005KT 10SM BKN110 22/16 A3026 RMK AO2 T02220155
KSVC 161515Z AUTO 00000KT 10SM SCT048 BKN110 22/15 A3027 RMK AO2 T02240154
KSVC 161455Z AUTO 00000KT 10SM BKN048 BKN120 22/16 A3026 RMK AO2 T02170160
KSVC 161435Z AUTO 00000KT 10SM SCT120 21/16 A3026 RMK AO2 T02070162
KSVC 161415Z AUTO 00000KT 10SM SCT048 SCT110 20/16 A3026 RMK AO2 T02010162
KSVC 161355Z AUTO 31003KT 10SM BKN110 20/17 A3026 RMK AO2 T01950169
KSVC 161335Z AUTO 31005KT 10SM SCT110 19/17 A3024 RMK AO2 T01910170
KSVC 161315Z AUTO 00000KT 10SM BKN110 18/17 A3024 RMK AO2 T01820170
KSVC 161255Z AUTO 00000KT 10SM SCT120 18/17 A3023 RMK AO2 T01760167
KSVC 161235Z AUTO 00000KT 10SM CLR 17/17 A3022 RMK AO2 T01720165
KSVC 161215Z AUTO 01003KT 10SM CLR 17/16 A3021 RMK AO2 T01700162
KSVC 161155Z AUTO 33003KT 10SM CLR 17/17 A3020 RMK AO2 60057 70066 T01720165 10198 20170
KSVC 161135Z AUTO 36003KT 10SM CLR 17/17 A3020 RMK AO2 T01730166
KSVC 161115Z AUTO 36003KT 10SM CLR 17/17 A3020 RMK AO2 T01730167
KSVC 161055Z AUTO 01004KT 10SM CLR 17/17 A3020 RMK AO2 T01730167
KSVC 161035Z AUTO 34004KT 10SM CLR 17/17 A3021 RMK AO2 T01720168
KSVC 161015Z AUTO 36003KT 10SM CLR 17/17 A3021 RMK AO2 T01710167
KSVC 160955Z AUTO 00000KT 10SM CLR 17/17 A3021 RMK AO2 T01700166
KSVC 160935Z AUTO 31004KT 10SM CLR 17/17 A3021 RMK AO2 T01700167
KSVC 160915Z AUTO 00000KT 10SM SCT002 SCT120 17/17 A3022 RMK AO2 LTG DSNT NW T01730170
KSVC 160855Z AUTO 00000KT 10SM BKN002 18/17 A3023 RMK AO2 LTG DSNT NW 60057 T01750170
KSVC 160835Z AUTO 00000KT 10SM BKN004 BKN049 BKN060 18/17 A3023 RMK AO2 LTG DSNT NW T01750170
KSVC 160815Z AUTO 18005KT 10SM -RA SCT090 SCT120 18/17 A3023 RMK AO2 LTG DSNT N AND NW T01770167
KSVC 160755Z AUTO 00000KT 10SM SCT110 18/16 A3023 RMK AO2 LTG DSNT N AND NW T01760164
KSVC 160735Z AUTO 00000KT 10SM CLR 18/16 A3024 RMK AO2 LTG DSNT N T01750163
KSVC 160715Z AUTO 09004KT 10SM VCTS SCT037 SCT047 SCT070 18/17 A3025 RMK AO2 LTG DSNT NW THRU NE T01760165
KSVC 160655Z AUTO 00000KT 10SM -VCTSRA SCT044 BKN080 OVC095 18/17 A3024 RMK AO2 LTG DSNT NW THRU E P0057 T01780165 402970161
KSVC 160635Z AUTO 32006KT 10SM -RA SCT019 SCT033 OVC095 19/16 A3023 RMK AO2 LTG DSNT N THRU S P0055 T01850163
KSVC 160615Z AUTO 09010G25KT 1 1/4SM +TSRA SCT019 BKN034 OVC050 19/15 A3023 RMK AO2 LTG DSNT ALQS P0044 T01870150
KSVC 160555Z AUTO 11011G19KT 5SM TSRA SCT037 BKN050 OVC055 18/17 A3026 RMK AO2 LTG DSNT ALQS P0009 60009 T01790165 10288 20177
KSVC 160535Z AUTO 09014G21KT 10SM -TSRA SCT024 SCT035 OVC050 19/16 A3026 RMK AO2 LTG DSNT ALQS T01850162
KSVC 160515Z AUTO 09019G30KT 10SM TS SCT022 BKN060 OVC110 20/16 A3025 RMK AO2 LTG DSNT ALQS T01970156
KSVC 160455Z AUTO 34004KT 10SM VCTS BKN095 22/16 A3022 RMK AO2 LTG DSNT ALQS T02160160
KSVC 160435Z AUTO 30003KT 10SM VCTS SCT095 21/16 A3022 RMK AO2 LTG DSNT N THRU SE T02080162
KSVC 160415Z AUTO 00000KT 10SM CLR 22/16 A3021 RMK AO2 LTG DSNT E AND SE T02210156
KSVC 160355Z AUTO 23003KT 10SM CLR 22/16 A3020 RMK AO2 LTG DSNT NE AND E T02200157
KSVC 160335Z AUTO 31006KT 10SM CLR 22/16 A3019 RMK AO2 LTG DSNT NE AND E T02150159
KSVC 160315Z AUTO 31005KT 10SM CLR 22/16 A3017 RMK AO2 LTG DSNT E T02190157
KSVC 160255Z AUTO 27004KT 10SM VCTS CLR 24/15 A3016 RMK AO2 LTG DSNT E AND SE T02350152
KSVC 160235Z AUTO 27006KT 10SM CLR 24/15 A3015 RMK AO2 LTG DSNT N AND E T02400153
KSVC 160215Z AUTO 28008KT 10SM CLR 25/15 A3014 RMK AO2 LTG DSNT ALQS T02470151
KSVC 160155Z AUTO 28011KT 10SM CLR 26/15 A3014 RMK AO2 LTG DSNT SE T02560149
KSVC 160135Z AUTO 29011KT 10SM CLR 26/15 A3013 RMK AO2 LTG DSNT N AND SE T02630146
KSVC 160115Z AUTO 28015G18KT 10SM CLR 27/14 A3013 RMK AO2 LTG DSNT N AND SE T02710144
KSVC 160055Z AUTO 28012G16KT 10SM CLR 28/14 A3012 RMK AO2 LTG DSNT SE T02750142
KSVC 160035Z AUTO 28011KT 10SM CLR 28/14 A3012 RMK AO2 T02760137
KSVC 160015Z AUTO 27014G17KT 10SM CLR 28/14 A3012 RMK AO2 T02800136
KSVC 152355Z AUTO 28014G19KT 10SM CLR 29/14 A3013 RMK AO2 LTG DSNT SE T02870141 10297 20201